createdAt,value
2019-02-19T00:00:38.896Z,80.52
2019-02-19T00:01:38.879Z,80.73
2019-02-19T00:02:38.867Z,81.04
2019-02-19T00:03:38.871Z,80.73
2019-02-19T00:04:38.897Z,80.73
2019-02-19T00:05:38.834Z,81.04
2019-02-19T00:06:38.829Z,81.15
2019-02-19T00:07:38.847Z,80.69
2019-02-19T00:08:38.830Z,81.15
2019-02-19T00:09:38.794Z,81.04
2019-02-19T00:10:38.781Z,80.94
2019-02-19T00:11:38.767Z,81.25
2019-02-19T00:12:38.791Z,81.04
2019-02-19T00:13:38.750Z,81.15
2019-02-19T00:14:38.738Z,80.63
2019-02-19T00:15:38.727Z,81.25
2019-02-19T00:16:38.743Z,81.15
2019-02-19T00:17:38.709Z,81.35
2019-02-19T00:18:38.693Z,81.25
2019-02-19T00:19:38.682Z,80.94
2019-02-19T00:20:38.694Z,81.04
2019-02-19T00:21:38.679Z,80.77
2019-02-19T00:22:38.671Z,81.25
2019-02-19T00:23:38.638Z,81.04
2019-02-19T00:24:38.663Z,80.94
2019-02-19T00:25:38.633Z,81.39
2019-02-19T00:26:38.608Z,81.60
2019-02-19T00:27:38.628Z,81.49
2019-02-19T00:28:38.591Z,81.74
2019-02-19T00:29:38.572Z,82.15
2019-02-19T00:30:38.582Z,82.26
2019-02-19T00:31:38.556Z,81.70
2019-02-19T00:32:38.567Z,81.74
2019-02-19T00:33:38.538Z,82.12
2019-02-19T00:34:38.521Z,82.15
2019-02-19T00:35:38.524Z,81.95
2019-02-19T00:36:38.498Z,82.15
2019-02-19T00:37:38.514Z,82.57
2019-02-19T00:38:38.475Z,82.68
2019-02-19T00:39:38.467Z,82.99
2019-02-19T00:40:38.465Z,82.99
2019-02-19T00:41:38.465Z,82.99
2019-02-19T00:42:38.436Z,83.61
2019-02-19T00:43:38.426Z,83.75
2019-02-19T00:44:38.479Z,83.65
2019-02-19T00:45:38.400Z,83.96
2019-02-19T00:46:38.393Z,83.86
2019-02-19T00:47:38.378Z,83.96
2019-02-19T00:48:38.365Z,83.65
2019-02-19T00:49:38.379Z,83.65
2019-02-19T00:50:38.350Z,83.44
2019-02-19T00:51:38.336Z,83.96
2019-02-19T00:52:38.326Z,83.86
2019-02-19T00:53:38.347Z,83.54
2019-02-19T00:54:38.304Z,83.51
2019-02-19T00:55:38.287Z,83.92
2019-02-19T00:56:38.287Z,83.82
2019-02-19T00:57:38.265Z,83.92
2019-02-19T00:58:38.298Z,83.82
2019-02-19T00:59:38.245Z,83.65
2019-02-19T01:00:38.262Z,83.75
2019-02-19T01:01:38.248Z,83.86
2019-02-19T01:02:38.215Z,83.96
2019-02-19T01:03:38.205Z,84.27
2019-02-19T01:04:38.214Z,84.27
2019-02-19T01:05:38.192Z,84.27
2019-02-19T01:06:38.168Z,84.27
2019-02-19T01:07:38.178Z,84.48
2019-02-19T01:08:38.157Z,83.96
2019-02-19T01:09:38.142Z,83.96
2019-02-19T01:10:38.126Z,84.48
2019-02-19T01:11:38.112Z,84.48
2019-02-19T01:12:38.126Z,84.38
2019-02-19T01:13:38.098Z,84.38
2019-02-19T01:14:38.080Z,84.34
2019-02-19T01:15:38.071Z,84.44
2019-02-19T01:16:38.062Z,84.59
2019-02-19T01:17:38.078Z,84.59
2019-02-19T01:18:38.044Z,84.59
2019-02-19T01:19:38.026Z,85.21
2019-02-19T01:20:38.042Z,85.31
2019-02-19T01:21:38.013Z,84.69
2019-02-19T01:22:38.019Z,84.80
2019-02-19T01:23:37.983Z,85.11
2019-02-19T01:24:37.978Z,85.11
2019-02-19T01:25:37.963Z,84.69
2019-02-19T01:26:37.976Z,84.59
2019-02-19T01:27:37.946Z,84.27
2019-02-19T01:28:37.963Z,84.38
2019-02-19T01:29:37.918Z,84.80
2019-02-19T01:30:37.907Z,84.80
2019-02-19T01:31:37.897Z,85.52
2019-02-19T01:32:37.892Z,85.31
2019-02-19T01:33:37.894Z,85.73
2019-02-19T01:34:37.872Z,85.00
2019-02-19T01:35:37.852Z,85.63
2019-02-19T01:36:37.848Z,85.42
2019-02-19T01:37:37.840Z,85.73
2019-02-19T01:38:37.842Z,85.83
2019-02-19T01:39:37.806Z,85.63
2019-02-19T01:40:37.801Z,85.31
2019-02-19T01:41:37.813Z,85.46
2019-02-19T01:42:37.781Z,85.46
2019-02-19T01:43:37.785Z,85.04
2019-02-19T01:44:37.755Z,85.50
2019-02-19T01:45:37.742Z,85.98
2019-02-19T01:46:37.733Z,85.46
2019-02-19T01:47:37.788Z,85.77
2019-02-19T01:48:37.734Z,86.02
2019-02-19T01:49:37.695Z,85.81
2019-02-19T01:50:37.686Z,85.77
2019-02-19T01:51:37.678Z,85.81
2019-02-19T01:52:37.667Z,86.75
2019-02-19T01:53:37.692Z,86.12
2019-02-19T01:54:37.646Z,86.22
2019-02-19T01:55:37.634Z,86.12
2019-02-19T01:56:37.622Z,86.40
2019-02-19T01:57:37.611Z,86.71
2019-02-19T01:58:37.626Z,85.77
2019-02-19T01:59:37.619Z,85.77
2019-02-19T02:00:37.575Z,85.98
2019-02-19T02:01:37.575Z,85.56
2019-02-19T02:02:37.559Z,85.46
2019-02-19T02:03:37.555Z,85.56
2019-02-19T02:04:37.564Z,85.56
2019-02-19T02:05:37.525Z,85.60
2019-02-19T02:06:37.515Z,85.67
2019-02-19T02:07:37.503Z,85.71
2019-02-19T02:08:38.194Z,85.71
2019-02-19T02:09:37.495Z,85.88
2019-02-19T02:10:37.471Z,85.81
2019-02-19T02:11:37.456Z,86.71
2019-02-19T02:12:37.458Z,86.85
2019-02-19T02:13:37.462Z,86.54
2019-02-19T02:14:37.426Z,86.60
2019-02-19T02:15:42.726Z,86.60
2019-02-19T02:16:38.404Z,85.98
2019-02-19T02:17:37.398Z,86.19
2019-02-19T02:18:37.388Z,85.60
2019-02-19T02:19:37.394Z,86.43
2019-02-19T02:20:37.364Z,85.81
2019-02-19T02:21:37.349Z,85.60
2019-02-19T02:22:37.339Z,85.39
2019-02-19T02:23:37.336Z,86.75
2019-02-19T02:24:37.331Z,86.22
2019-02-19T02:25:37.306Z,86.12
2019-02-19T02:26:37.296Z,86.12
2019-02-19T02:27:37.310Z,86.02
2019-02-19T02:28:37.278Z,86.02
2019-02-19T02:29:37.258Z,86.33
2019-02-19T02:30:37.273Z,85.91
2019-02-19T02:31:37.237Z,85.91
2019-02-19T02:32:37.234Z,86.85
2019-02-19T02:33:37.223Z,86.22
2019-02-19T02:34:37.244Z,85.91
2019-02-19T02:35:37.235Z,86.50
2019-02-19T02:36:37.186Z,86.29
2019-02-19T02:37:37.221Z,85.98
2019-02-19T02:38:37.169Z,86.29
2019-02-19T02:39:37.156Z,86.81
2019-02-19T02:40:37.181Z,86.60
2019-02-19T02:41:37.133Z,85.83
2019-02-19T02:42:37.127Z,86.46
2019-02-19T02:43:37.105Z,85.73
2019-02-19T02:44:37.104Z,85.42
2019-02-19T02:45:37.102Z,85.52
2019-02-19T02:46:43.934Z,85.73
2019-02-19T02:47:37.069Z,85.73
2019-02-19T02:48:37.056Z,85.63
2019-02-19T02:49:37.045Z,85.73
2019-02-19T02:50:37.056Z,85.73
2019-02-19T02:51:37.051Z,85.94
2019-02-19T02:52:37.009Z,85.42
2019-02-19T02:53:37.059Z,85.69
2019-02-19T02:54:36.984Z,85.52
2019-02-19T02:55:37.000Z,85.42
2019-02-19T02:56:36.977Z,85.49
2019-02-19T02:57:36.956Z,85.52
2019-02-19T02:58:36.943Z,85.52
2019-02-19T02:59:36.934Z,85.52
2019-02-19T03:00:36.941Z,85.94
2019-02-19T03:01:36.933Z,84.94
2019-02-19T03:02:36.932Z,85.67
2019-02-19T03:03:36.886Z,85.91
2019-02-19T03:04:36.881Z,86.29
2019-02-19T03:05:36.870Z,86.50
2019-02-19T03:06:36.855Z,86.65
2019-02-19T03:07:36.872Z,86.60
2019-02-19T03:08:36.855Z,86.60
2019-02-19T03:09:36.822Z,86.19
2019-02-19T03:10:36.838Z,86.29
2019-02-19T03:11:36.803Z,86.71
2019-02-19T03:12:36.791Z,86.40
2019-02-19T03:13:36.783Z,86.22
2019-02-19T03:14:36.818Z,86.33
2019-02-19T03:15:36.757Z,86.65
2019-02-19T03:16:36.830Z,86.54
2019-02-19T03:17:36.743Z,86.33
2019-02-19T03:18:36.727Z,86.33
2019-02-19T03:19:36.744Z,86.54
2019-02-19T03:20:36.808Z,86.43
2019-02-19T03:21:36.695Z,86.37
2019-02-19T03:22:36.702Z,86.33
2019-02-19T03:23:36.692Z,86.54
2019-02-19T03:24:36.681Z,86.96
2019-02-19T03:25:36.676Z,86.85
2019-02-19T03:26:36.638Z,86.54
2019-02-19T03:27:36.625Z,86.85
2019-02-19T03:28:36.633Z,86.96
2019-02-19T03:29:36.606Z,86.99
2019-02-19T03:30:36.623Z,87.52
2019-02-19T03:31:36.585Z,87.52
2019-02-19T03:32:36.570Z,87.73
2019-02-19T03:33:36.570Z,87.37
2019-02-19T03:34:36.548Z,87.68
2019-02-19T03:35:36.573Z,87.83
2019-02-19T03:36:36.552Z,87.99
2019-02-19T03:37:36.516Z,87.68
2019-02-19T03:38:36.509Z,87.16
2019-02-19T03:39:36.494Z,86.96
2019-02-19T03:40:36.558Z,86.75
2019-02-19T03:41:36.487Z,86.75
2019-02-19T03:42:36.459Z,86.33
2019-02-19T03:43:36.453Z,86.85
2019-02-19T03:44:36.437Z,86.99
2019-02-19T03:45:36.452Z,86.79
2019-02-19T03:46:36.464Z,87.52
2019-02-19T03:47:36.409Z,87.10
2019-02-19T03:48:36.395Z,87.66
2019-02-19T03:49:36.392Z,87.76
2019-02-19T03:50:36.372Z,87.62
2019-02-19T03:51:36.383Z,87.62
2019-02-19T03:52:36.375Z,87.73
2019-02-19T03:53:36.356Z,87.62
2019-02-19T03:54:36.327Z,87.73
2019-02-19T03:55:36.320Z,87.97
2019-02-19T03:56:36.306Z,87.76
2019-02-19T03:57:36.319Z,88.18
2019-02-19T03:58:36.312Z,88.39
2019-02-19T03:59:36.276Z,88.18
2019-02-19T04:00:36.271Z,88.49
2019-02-19T04:01:36.254Z,88.39
2019-02-19T04:02:36.266Z,88.45
2019-02-19T04:03:36.234Z,88.24
2019-02-19T04:04:36.218Z,88.35
2019-02-19T04:05:36.213Z,88.35
2019-02-19T04:06:36.231Z,88.35
2019-02-19T04:07:36.187Z,88.14
2019-02-19T04:08:36.214Z,87.62
2019-02-19T04:09:36.171Z,87.52
2019-02-19T04:10:36.191Z,87.97
2019-02-19T04:11:36.149Z,87.62
2019-02-19T04:12:36.133Z,87.93
2019-02-19T04:13:36.142Z,87.93
2019-02-19T04:14:36.112Z,87.93
2019-02-19T04:15:36.108Z,88.14
2019-02-19T04:16:36.091Z,88.04
2019-02-19T04:17:36.111Z,87.83
2019-02-19T04:18:36.065Z,87.83
2019-02-19T04:19:36.080Z,87.83
2019-02-19T04:20:36.048Z,87.93
2019-02-19T04:21:36.046Z,88.14
2019-02-19T04:22:36.046Z,87.93
2019-02-19T04:23:36.011Z,88.14
2019-02-19T04:24:36.030Z,88.14
2019-02-19T04:25:36.019Z,88.24
2019-02-19T04:26:35.994Z,88.14
2019-02-19T04:27:35.969Z,88.45
2019-02-19T04:28:35.959Z,88.35
2019-02-19T04:29:35.975Z,88.35
2019-02-19T04:30:35.935Z,87.93
2019-02-19T04:31:35.934Z,88.04
2019-02-19T04:32:35.920Z,87.83
2019-02-19T04:33:35.926Z,88.14
2019-02-19T04:34:35.899Z,87.93
2019-02-19T04:35:35.893Z,88.39
2019-02-19T04:36:35.866Z,88.39
2019-02-19T04:37:35.885Z,88.39
2019-02-19T04:38:35.851Z,88.29
2019-02-19T04:39:35.835Z,88.39
2019-02-19T04:40:35.840Z,88.39
2019-02-19T04:41:35.815Z,89.32
2019-02-19T04:42:35.835Z,89.39
2019-02-19T04:43:35.791Z,89.39
2019-02-19T04:44:35.800Z,89.01
2019-02-19T04:45:35.792Z,89.18
2019-02-19T04:46:35.769Z,88.91
2019-02-19T04:47:35.762Z,88.81
2019-02-19T04:48:35.760Z,89.32
2019-02-19T04:49:35.763Z,88.87
2019-02-19T04:50:35.717Z,88.76
2019-02-19T04:51:35.704Z,89.29
2019-02-19T04:52:35.692Z,89.18
2019-02-19T04:53:35.681Z,89.08
2019-02-19T04:54:35.687Z,89.18
2019-02-19T04:55:35.694Z,88.98
2019-02-19T04:56:35.655Z,88.98
2019-02-19T04:57:35.641Z,88.14
2019-02-19T04:58:35.628Z,89.43
2019-02-19T04:59:35.617Z,88.81
2019-02-19T05:00:35.620Z,89.32
2019-02-19T05:01:35.602Z,89.54
2019-02-19T05:02:35.588Z,89.29
2019-02-19T05:03:35.584Z,89.39
2019-02-19T05:04:35.588Z,89.01
2019-02-19T05:05:35.591Z,89.50
2019-02-19T05:06:35.541Z,88.98
2019-02-19T05:07:35.536Z,89.32
2019-02-19T05:08:35.535Z,89.22
2019-02-19T05:09:35.507Z,89.01
2019-02-19T05:10:35.535Z,89.32
2019-02-19T05:11:35.490Z,89.22
2019-02-19T05:12:35.474Z,89.12
2019-02-19T05:13:35.463Z,89.47
2019-02-19T05:14:35.479Z,89.26
2019-02-19T05:15:35.456Z,89.06
2019-02-19T05:16:40.654Z,89.37
2019-02-19T05:17:36.438Z,89.47
2019-02-19T05:18:35.408Z,89.26
2019-02-19T05:19:35.403Z,89.89
2019-02-19T05:20:35.389Z,89.58
2019-02-19T05:21:35.396Z,89.58
2019-02-19T05:22:35.371Z,90.00
2019-02-19T05:23:35.361Z,90.52
2019-02-19T05:24:35.357Z,90.16
2019-02-19T05:25:35.374Z,90.37
2019-02-19T05:26:35.351Z,90.16
2019-02-19T05:27:35.328Z,90.37
2019-02-19T05:28:35.300Z,90.16
2019-02-19T05:29:35.297Z,90.26
2019-02-19T05:30:35.298Z,90.06
2019-02-19T05:31:35.298Z,90.37
2019-02-19T05:32:35.257Z,90.26
2019-02-19T05:33:35.245Z,90.16
2019-02-19T05:34:35.266Z,90.12
2019-02-19T05:35:35.265Z,89.81
2019-02-19T05:36:35.235Z,89.91
2019-02-19T05:37:35.233Z,89.91
2019-02-19T05:38:35.194Z,89.60
2019-02-19T05:39:35.184Z,89.60
2019-02-19T05:40:35.198Z,89.87
2019-02-19T05:41:35.161Z,90.19
2019-02-19T05:42:35.170Z,89.60
2019-02-19T05:43:35.139Z,89.76
2019-02-19T05:44:35.124Z,89.45
2019-02-19T05:45:35.130Z,89.76
2019-02-19T05:46:35.136Z,88.93
2019-02-19T05:47:35.131Z,89.35
2019-02-19T05:48:35.108Z,89.04
2019-02-19T05:49:35.069Z,89.25
2019-02-19T05:50:35.062Z,89.14
2019-02-19T05:51:35.051Z,89.45
2019-02-19T05:52:35.040Z,89.45
2019-02-19T05:53:35.051Z,89.31
2019-02-19T05:54:35.019Z,89.20
2019-02-19T05:55:35.038Z,89.00
2019-02-19T05:56:35.003Z,88.89
2019-02-19T05:57:35.018Z,88.68
2019-02-19T05:58:34.998Z,89.06
2019-02-19T05:59:34.966Z,89.06
2019-02-19T06:00:34.961Z,89.37
2019-02-19T06:01:34.944Z,89.17
2019-02-19T06:02:34.967Z,89.06
2019-02-19T06:03:34.917Z,88.64
2019-02-19T06:04:34.915Z,88.85
2019-02-19T06:05:34.895Z,88.19
2019-02-19T06:06:34.891Z,89.06
2019-02-19T06:07:34.902Z,88.71
2019-02-19T06:08:34.883Z,87.92
2019-02-19T06:09:34.850Z,87.66
2019-02-19T06:10:34.841Z,87.66
2019-02-19T06:11:34.855Z,87.73
2019-02-19T06:12:34.819Z,87.59
2019-02-19T06:13:34.843Z,86.96
2019-02-19T06:14:34.795Z,86.55
2019-02-19T06:15:34.811Z,86.55
2019-02-19T06:16:34.772Z,86.55
2019-02-19T06:17:34.776Z,86.65
2019-02-19T06:18:34.781Z,86.24
2019-02-19T06:19:34.742Z,86.34
2019-02-19T06:20:34.747Z,86.76
2019-02-19T06:21:34.722Z,86.76
2019-02-19T06:22:34.717Z,86.76
2019-02-19T06:23:34.726Z,86.61
2019-02-19T06:24:34.701Z,86.82
2019-02-19T06:25:34.702Z,86.24
2019-02-19T06:26:34.668Z,86.03
2019-02-19T06:27:34.653Z,86.51
2019-02-19T06:28:34.645Z,86.55
2019-02-19T06:29:34.643Z,86.65
2019-02-19T06:30:34.656Z,86.24
2019-02-19T06:31:34.611Z,86.51
2019-02-19T06:32:34.628Z,86.41
2019-02-19T06:33:34.587Z,86.09
2019-02-19T06:34:34.586Z,86.19
2019-02-19T06:35:34.573Z,85.53
2019-02-19T06:36:34.580Z,85.64
2019-02-19T06:37:34.556Z,85.39
2019-02-19T06:38:34.546Z,85.50
2019-02-19T06:39:34.520Z,85.19
2019-02-19T06:40:34.531Z,85.19
2019-02-19T06:41:34.538Z,85.50
2019-02-19T06:42:34.514Z,84.36
2019-02-19T06:43:34.486Z,84.52
2019-02-19T06:44:34.467Z,83.90
2019-02-19T06:45:34.491Z,83.65
2019-02-19T06:46:34.444Z,83.03
2019-02-19T06:47:34.433Z,82.17
2019-02-19T06:48:34.421Z,81.85
2019-02-19T06:49:34.416Z,81.54
2019-02-19T06:50:34.426Z,81.20
2019-02-19T06:51:34.386Z,81.09
2019-02-19T06:52:34.382Z,80.88
2019-02-19T06:53:34.387Z,80.78
2019-02-19T06:54:34.354Z,80.05
2019-02-19T06:55:34.346Z,79.71
2019-02-19T06:56:34.331Z,79.09
2019-02-19T06:57:34.359Z,78.88
2019-02-19T06:58:34.314Z,78.95
2019-02-19T06:59:34.304Z,79.19
2019-02-19T07:00:34.313Z,79.30
2019-02-19T07:01:34.292Z,79.09
2019-02-19T07:02:34.270Z,78.78
2019-02-19T07:03:34.262Z,78.99
2019-02-19T07:04:34.247Z,79.16
2019-02-19T07:05:34.256Z,78.95
2019-02-19T07:06:34.247Z,79.09
2019-02-19T07:07:34.218Z,78.99
2019-02-19T07:08:34.208Z,79.05
2019-02-19T07:09:34.221Z,78.74
2019-02-19T07:10:34.197Z,78.53
2019-02-19T07:11:34.207Z,78.43
2019-02-19T07:12:34.158Z,78.12
2019-02-19T07:13:34.151Z,77.29
2019-02-19T07:14:34.137Z,77.47
2019-02-19T07:15:34.129Z,77.47
2019-02-19T07:16:34.143Z,77.05
2019-02-19T07:17:34.114Z,77.67
2019-02-19T07:18:34.105Z,77.47
2019-02-19T07:19:34.085Z,77.47
2019-02-19T07:20:34.070Z,77.05
2019-02-19T07:21:34.077Z,77.36
2019-02-19T07:22:34.046Z,77.56
2019-02-19T07:23:34.037Z,77.05
2019-02-19T07:24:34.033Z,76.95
2019-02-19T07:25:34.037Z,76.39
2019-02-19T07:26:34.006Z,76.50
2019-02-19T07:27:33.993Z,76.70
2019-02-19T07:28:33.987Z,76.60
2019-02-19T07:29:33.994Z,76.81
2019-02-19T07:30:33.958Z,77.01
2019-02-19T07:31:33.946Z,76.77
2019-02-19T07:32:33.944Z,76.81
2019-02-19T07:33:33.926Z,76.50
2019-02-19T07:34:33.931Z,76.70
2019-02-19T07:35:33.930Z,76.60
2019-02-19T07:36:33.900Z,76.50
2019-02-19T07:37:33.883Z,76.70
2019-02-19T07:38:33.890Z,76.70
2019-02-19T07:39:33.861Z,75.74
2019-02-19T07:40:33.869Z,75.88
2019-02-19T07:41:33.840Z,75.84
2019-02-19T07:42:33.834Z,75.32
2019-02-19T07:43:33.817Z,75.43
2019-02-19T07:44:33.830Z,75.53
2019-02-19T07:45:33.818Z,75.32
2019-02-19T07:46:33.789Z,75.43
2019-02-19T07:47:33.767Z,75.29
2019-02-19T07:48:33.778Z,76.84
2019-02-19T07:49:33.752Z,76.67
2019-02-19T07:50:33.764Z,76.77
2019-02-19T07:51:33.730Z,76.46
2019-02-19T07:52:33.729Z,76.77
2019-02-19T07:53:33.707Z,76.77
2019-02-19T07:54:33.712Z,77.08
2019-02-19T07:55:33.683Z,77.39
2019-02-19T07:56:33.686Z,76.77
2019-02-19T07:57:33.657Z,77.39
2019-02-19T07:58:33.677Z,77.81
2019-02-19T07:59:33.647Z,78.01
2019-02-19T08:00:33.625Z,77.91
2019-02-19T08:01:33.634Z,77.70
2019-02-19T08:02:33.607Z,78.77
2019-02-19T08:03:33.613Z,78.74
2019-02-19T08:04:33.585Z,78.94
2019-02-19T08:05:33.568Z,79.05
2019-02-19T08:06:33.572Z,79.91
2019-02-19T08:07:33.551Z,79.80
2019-02-19T08:08:33.564Z,79.39
2019-02-19T08:09:33.523Z,79.66
2019-02-19T08:10:33.522Z,80.01
2019-02-19T08:11:33.538Z,79.46
2019-02-19T08:12:33.491Z,79.46
2019-02-19T08:13:33.482Z,79.80
2019-02-19T08:14:33.477Z,79.77
2019-02-19T08:15:33.460Z,79.66
2019-02-19T08:16:33.472Z,79.97
2019-02-19T08:17:33.737Z,79.77
2019-02-19T08:18:33.440Z,80.39
2019-02-19T08:19:33.428Z,80.60
2019-02-19T08:20:33.422Z,80.66
2019-02-19T08:21:33.394Z,80.29
2019-02-19T08:22:33.386Z,80.25
2019-02-19T08:23:33.392Z,80.04
2019-02-19T08:24:33.357Z,79.52
2019-02-19T08:25:33.349Z,79.80
2019-02-19T08:26:33.342Z,79.59
2019-02-19T08:27:33.357Z,79.80
2019-02-19T08:28:33.319Z,79.59
2019-02-19T08:29:33.310Z,79.76
2019-02-19T08:30:33.325Z,79.38
2019-02-19T08:31:33.281Z,78.87
2019-02-19T08:32:33.272Z,78.94
2019-02-19T08:33:33.856Z,79.25
2019-02-19T08:34:33.286Z,79.35
2019-02-19T08:35:33.237Z,79.14
2019-02-19T08:36:33.238Z,79.35
2019-02-19T08:37:33.220Z,79.14
2019-02-19T08:38:33.232Z,79.14
2019-02-19T08:39:33.200Z,78.63
2019-02-19T08:40:33.190Z,79.14
2019-02-19T08:41:33.172Z,79.00
2019-02-19T08:42:33.163Z,79.41
2019-02-19T08:43:33.171Z,79.21
2019-02-19T08:44:33.147Z,78.90
2019-02-19T08:45:33.151Z,79.21
2019-02-19T08:46:33.116Z,78.69
2019-02-19T08:47:41.994Z,78.97
2019-02-19T08:48:34.098Z,78.80
2019-02-19T08:49:33.081Z,78.28
2019-02-19T08:50:33.111Z,78.76
2019-02-19T08:51:33.069Z,77.31
2019-02-19T08:52:33.050Z,78.04
2019-02-19T08:53:33.038Z,77.48
2019-02-19T08:54:33.032Z,77.08
2019-02-19T08:55:34.810Z,76.46
2019-02-19T08:56:33.034Z,76.87
2019-02-19T08:57:33.001Z,77.08
2019-02-19T08:58:32.982Z,77.08
2019-02-19T08:59:33.005Z,77.38
2019-02-19T09:00:32.961Z,77.38
2019-02-19T09:01:32.951Z,77.08
2019-02-19T09:02:32.963Z,76.76
2019-02-19T09:03:32.954Z,76.25
2019-02-19T09:04:32.932Z,76.66
2019-02-19T09:05:32.909Z,76.97
2019-02-19T09:06:32.905Z,76.76
2019-02-19T09:07:32.908Z,76.66
2019-02-19T09:08:34.366Z,76.15
2019-02-19T09:09:32.872Z,76.56
2019-02-19T09:10:32.879Z,76.56
2019-02-19T09:11:32.860Z,76.46
2019-02-19T09:12:32.835Z,76.56
2019-02-19T09:13:32.821Z,76.46
2019-02-19T09:14:32.812Z,76.15
2019-02-19T09:15:32.814Z,76.97
2019-02-19T09:16:32.792Z,76.46
2019-02-19T09:17:32.775Z,76.25
2019-02-19T09:18:32.789Z,76.15
2019-02-19T09:19:32.750Z,76.56
2019-02-19T09:20:32.767Z,76.66
2019-02-19T09:21:32.761Z,76.73
2019-02-19T09:22:32.738Z,77.14
2019-02-19T09:23:32.718Z,76.63
2019-02-19T09:24:32.698Z,76.32
2019-02-19T09:25:32.711Z,76.56
2019-02-19T09:26:32.673Z,76.46
2019-02-19T09:27:32.671Z,76.32
2019-02-19T09:28:32.663Z,76.66
2019-02-19T09:29:32.638Z,76.32
2019-02-19T09:30:32.649Z,76.53
2019-02-19T09:31:32.624Z,76.53
2019-02-19T09:32:32.611Z,75.49
2019-02-19T09:33:32.621Z,76.63
2019-02-19T09:34:32.589Z,76.21
2019-02-19T09:35:32.585Z,76.42
2019-02-19T09:36:32.595Z,76.42
2019-02-19T09:37:32.560Z,76.53
2019-02-19T09:38:32.564Z,76.11
2019-02-19T09:39:32.534Z,76.53
2019-02-19T09:40:33.570Z,77.31
2019-02-19T09:41:32.506Z,75.15
2019-02-19T09:42:32.499Z,76.28
2019-02-19T09:43:35.484Z,76.56
2019-02-19T09:44:32.477Z,75.08
2019-02-19T09:45:32.469Z,74.08
2019-02-19T09:46:32.454Z,74.36
2019-02-19T09:47:32.448Z,74.98
2019-02-19T09:48:32.452Z,74.12
2019-02-19T09:49:32.422Z,73.50
2019-02-19T09:50:32.416Z,73.81
2019-02-19T09:51:32.427Z,73.47
2019-02-19T09:52:32.388Z,73.57
2019-02-19T09:53:32.375Z,73.88
2019-02-19T09:54:32.374Z,73.27
2019-02-19T09:55:32.376Z,73.33
2019-02-19T09:56:32.347Z,73.44
2019-02-19T09:57:32.788Z,72.41
2019-02-19T09:58:32.326Z,72.20
2019-02-19T09:59:32.346Z,72.41
2019-02-19T10:00:32.299Z,72.06
2019-02-19T10:01:32.315Z,71.76
2019-02-19T10:02:32.294Z,71.86
2019-02-19T10:03:32.267Z,71.55
2019-02-19T10:04:32.289Z,71.55
2019-02-19T10:05:32.245Z,70.84
2019-02-19T10:06:32.232Z,71.45
2019-02-19T10:07:32.222Z,70.42
2019-02-19T10:08:32.214Z,71.28
2019-02-19T10:09:32.211Z,70.66
2019-02-19T10:10:32.188Z,71.08
2019-02-19T10:11:32.176Z,70.97
2019-02-19T10:12:32.170Z,70.90
2019-02-19T10:13:32.159Z,70.49
2019-02-19T10:14:32.168Z,72.00
2019-02-19T10:15:32.130Z,71.89
2019-02-19T10:16:32.119Z,70.97
2019-02-19T10:17:32.140Z,71.59
2019-02-19T10:18:32.099Z,71.17
2019-02-19T10:19:32.087Z,70.94
2019-02-19T10:20:32.104Z,70.94
2019-02-19T10:21:32.065Z,70.01
2019-02-19T10:22:32.052Z,71.14
2019-02-19T10:23:32.056Z,70.70
2019-02-19T10:24:32.034Z,70.70
2019-02-19T10:25:32.035Z,70.60
2019-02-19T10:26:32.042Z,69.98
2019-02-19T10:27:31.999Z,69.57
2019-02-19T10:28:31.991Z,69.23
2019-02-19T10:29:31.993Z,69.23
2019-02-19T10:30:31.966Z,68.68
2019-02-19T10:31:31.966Z,69.06
2019-02-19T10:32:31.940Z,68.14
2019-02-19T10:33:31.957Z,68.52
2019-02-19T10:34:31.923Z,67.40
2019-02-19T10:35:31.932Z,67.16
2019-02-19T10:36:31.902Z,65.90
2019-02-19T10:37:31.894Z,64.57
2019-02-19T10:38:31.877Z,65.39
2019-02-19T10:39:31.863Z,64.54
2019-02-19T10:40:31.949Z,64.43
2019-02-19T10:41:31.840Z,64.20
2019-02-19T10:42:31.840Z,65.33
2019-02-19T10:43:31.825Z,64.71
2019-02-19T10:44:31.834Z,64.58
2019-02-19T10:45:31.811Z,64.99
2019-02-19T10:46:31.784Z,63.48
2019-02-19T10:47:31.774Z,64.61
2019-02-19T10:48:31.761Z,64.43
2019-02-19T10:49:31.774Z,63.75
2019-02-19T10:50:31.743Z,64.60
2019-02-19T10:51:31.728Z,64.62
2019-02-19T10:52:31.727Z,66.19
2019-02-19T10:53:31.707Z,65.55
2019-02-19T10:54:31.741Z,65.14
2019-02-19T10:55:31.715Z,64.73
2019-02-19T10:56:31.675Z,65.75
2019-02-19T10:57:31.666Z,65.55
2019-02-19T10:58:31.654Z,65.75
2019-02-19T10:59:31.639Z,65.75
2019-02-19T11:00:31.657Z,65.86
2019-02-19T11:01:31.621Z,64.83
2019-02-19T11:02:31.611Z,64.83
2019-02-19T11:03:31.611Z,64.80
2019-02-19T11:04:31.584Z,65.39
2019-02-19T11:05:31.606Z,64.39
2019-02-19T11:06:31.567Z,64.39
2019-02-19T11:07:31.558Z,64.60
2019-02-19T11:08:31.571Z,63.98
2019-02-19T11:09:31.532Z,63.57
2019-02-19T11:10:31.533Z,63.78
2019-02-19T11:11:31.507Z,63.88
2019-02-19T11:12:31.497Z,63.34
2019-02-19T11:13:31.518Z,65.05
2019-02-19T11:14:31.477Z,63.89
2019-02-19T11:15:31.465Z,63.66
2019-02-19T11:16:31.462Z,61.72
2019-02-19T11:17:31.471Z,62.43
2019-02-19T11:18:31.433Z,62.20
2019-02-19T11:19:31.420Z,61.25
2019-02-19T11:20:31.412Z,62.27
2019-02-19T11:21:31.402Z,59.95
2019-02-19T11:22:31.439Z,60.39
2019-02-19T11:23:31.384Z,60.55
2019-02-19T11:24:31.363Z,60.68
2019-02-19T11:25:31.357Z,60.91
2019-02-19T11:26:31.348Z,61.96
2019-02-19T11:27:31.354Z,61.35
2019-02-19T11:28:31.322Z,61.69
2019-02-19T11:29:31.314Z,60.79
2019-02-19T11:30:31.305Z,61.41
2019-02-19T11:31:31.290Z,61.61
2019-02-19T11:32:31.305Z,62.43
2019-02-19T11:33:31.272Z,62.95
2019-02-19T11:34:31.253Z,62.68
2019-02-19T11:35:31.248Z,62.14
2019-02-19T11:36:31.237Z,60.68
2019-02-19T11:37:31.243Z,60.55
2019-02-19T11:38:31.210Z,59.04
2019-02-19T11:39:31.202Z,60.06
2019-02-19T11:40:31.205Z,60.96
2019-02-19T11:41:31.177Z,59.83
2019-02-19T11:42:31.162Z,59.53
2019-02-19T11:43:31.176Z,60.11
2019-02-19T11:44:31.145Z,60.01
2019-02-19T11:45:31.129Z,60.78
2019-02-19T11:46:31.118Z,61.01
2019-02-19T11:47:31.108Z,62.04
2019-02-19T11:48:36.742Z,62.45
2019-02-19T11:49:32.091Z,62.04
2019-02-19T11:50:31.074Z,61.73
2019-02-19T11:51:31.067Z,61.83
2019-02-19T11:52:31.051Z,61.32
2019-02-19T11:53:31.073Z,61.43
2019-02-19T11:54:31.029Z,61.86
2019-02-19T11:55:31.022Z,62.17
2019-02-19T11:56:31.006Z,61.66
2019-02-19T11:57:30.997Z,61.15
2019-02-19T11:58:31.013Z,60.63
2019-02-19T11:59:30.975Z,61.25
2019-02-19T12:00:30.962Z,60.91
2019-02-19T12:01:30.954Z,59.68
2019-02-19T12:02:32.903Z,61.32
2019-02-19T12:03:30.949Z,58.45
2019-02-19T12:04:30.918Z,58.86
2019-02-19T12:05:30.908Z,60.10
2019-02-19T12:06:30.901Z,59.58
2019-02-19T12:07:30.896Z,59.68
2019-02-19T12:08:38.811Z,56.30
2019-02-19T12:09:31.874Z,56.51
2019-02-19T12:10:30.886Z,56.48
2019-02-19T12:11:30.840Z,57.71
2019-02-19T12:12:30.828Z,56.41
2019-02-19T12:13:30.817Z,56.89
2019-02-19T12:14:30.809Z,57.61
2019-02-19T12:15:35.093Z,58.02
2019-02-19T12:16:30.791Z,56.69
2019-02-19T12:17:30.774Z,56.28
2019-02-19T12:18:30.760Z,57.10
2019-02-19T12:19:30.753Z,56.89
2019-02-19T12:20:30.755Z,56.46
2019-02-19T12:21:30.772Z,56.97
2019-02-19T12:22:30.726Z,56.46
2019-02-19T12:23:30.719Z,58.70
2019-02-19T12:24:30.723Z,56.84
2019-02-19T12:25:30.720Z,56.20
2019-02-19T12:26:30.672Z,56.30
2019-02-19T12:27:30.661Z,55.49
2019-02-19T12:28:30.657Z,55.99
2019-02-19T12:29:30.657Z,55.18
2019-02-19T12:30:30.647Z,54.44
2019-02-19T12:31:30.668Z,54.03
2019-02-19T12:32:30.612Z,54.21
2019-02-19T12:33:30.595Z,54.51
2019-02-19T12:34:30.587Z,54.41
2019-02-19T12:35:30.574Z,53.29
2019-02-19T12:36:30.597Z,53.19
2019-02-19T12:37:30.551Z,53.39
2019-02-19T12:38:30.544Z,54.39
2019-02-19T12:39:30.528Z,52.62
2019-02-19T12:40:30.521Z,51.89
2019-02-19T12:41:30.528Z,52.68
2019-02-19T12:42:30.500Z,51.15
2019-02-19T12:43:30.483Z,50.74
2019-02-19T12:44:30.472Z,49.42
2019-02-19T12:45:30.491Z,50.64
2019-02-19T12:46:30.452Z,50.34
2019-02-19T12:47:30.460Z,50.31
2019-02-19T12:48:30.432Z,47.89
2019-02-19T12:49:30.428Z,50.08
2019-02-19T12:50:30.410Z,50.97
2019-02-19T12:51:30.422Z,49.85
2019-02-19T12:52:30.382Z,50.64